Terminal Aerodrome Forecast
Issued by NWS Missoula, MT

Home | Current Version | Previous Version | Text Only | Print | Product List | Glossary On
Versions: 1 2 3 4 5 6 7 8 9 10 11 12 13 14 15 16 17 18 19 20
000
FTUS45 KMSO 301720
TAFBTM
TAF
KBTM 301720Z 3018/3118 21014G24KT P6SM BKN090
     FM310100 29018G28KT P6SM VCSH BKN070
     FM310300 31010KT P6SM SCT100=

USA.gov is the U.S. government's official web portal to all federal, state and local government web resources and services.